Time;durP1;ratioP1;P1;durP2;ratioP2;P2;SDS_P1;SDS_P2;PMS_P1;PMS_P2;Temp;Humidity;BMP_temperature;BMP_pressure;BME280_temperature;BME280_humidity;BME280_pressure;Samples;Min_cycle;Max_cycle;Signal;HPM_P1;HPM_P2
2021/08/09 00:01:43;;;;;;;2.67;2.47;;;13.90;98.30;;;;;;5051429;28;20597;-86
2021/08/09 00:04:10;;;;;;;3.83;2.57;;;13.90;98.50;;;;;;5051987;28;20740;-85
2021/08/09 00:06:37;;;;;;;3.27;2.97;;;13.90;98.10;;;;;;5051144;28;20646;-85
2021/08/09 00:09:06;;;;;;;3.77;2.57;;;13.80;98.70;;;;;;5046244;28;20649;-85
2021/08/09 00:11:34;;;;;;;2.00;1.90;;;13.80;99.10;;;;;;5051094;28;20636;-85
2021/08/09 00:14:01;;;;;;;2.40;1.80;;;13.80;99.40;;;;;;5051321;28;20655;-85
2021/08/09 00:16:28;;;;;;;2.60;2.27;;;13.80;99.20;;;;;;5051382;28;20710;-85
2021/08/09 00:18:56;;;;;;;2.07;1.87;;;13.80;98.40;;;;;;5050915;28;20630;-86
2021/08/09 00:21:23;;;;;;;2.40;2.20;;;13.80;98.50;;;;;;5051102;28;20682;-85
2021/08/09 00:23:50;;;;;;;2.03;1.83;;;13.80;98.90;;;;;;5050712;28;20619;-86
2021/08/09 00:26:19;;;;;;;2.27;1.87;;;13.70;99.30;;;;;;5049072;28;21170;-86
2021/08/09 00:28:47;;;;;;;2.47;1.80;;;13.70;99.80;;;;;;5050972;28;20630;-86
2021/08/09 00:31:14;;;;;;;2.17;1.97;;;13.70;99.40;;;;;;5061935;28;20625;-86
2021/08/09 00:33:41;;;;;;;2.53;2.20;;;13.70;98.90;;;;;;5070231;28;21238;-86
2021/08/09 00:36:08;;;;;;;3.13;2.30;;;13.70;98.70;;;;;;5070823;28;20617;-86
2021/08/09 00:38:35;;;;;;;1.70;1.60;;;13.70;98.30;;;;;;5069790;28;20663;-85
2021/08/09 00:41:02;;;;;;;2.07;1.70;;;13.70;98.50;;;;;;5066605;28;20613;-85
2021/08/09 00:43:29;;;;;;;8.23;2.00;;;13.70;98.50;;;;;;5049815;28;20629;-86
2021/08/09 00:46:01;;;;;;;2.90;1.87;;;13.70;98.90;;;;;;5050669;28;20668;-85
2021/08/09 00:48:28;;;;;;;2.50;1.90;;;13.70;99.50;;;;;;5056829;28;20632;-85
2021/08/09 00:50:55;;;;;;;1.90;1.70;;;13.60;99.10;;;;;;5082031;28;20614;-85
2021/08/09 00:53:22;;;;;;;1.83;1.70;;;13.60;99.10;;;;;;5070480;28;21029;-86
2021/08/09 00:55:51;;;;;;;2.27;2.00;;;13.60;98.80;;;;;;5070759;28;20631;-86
2021/08/09 00:58:18;;;;;;;3.20;1.90;;;13.60;98.90;;;;;;5070644;28;20606;-86
2021/08/09 01:00:45;;;;;;;2.13;1.90;;;13.60;99.60;;;;;;5069803;28;20653;-85
2021/08/09 01:03:15;;;;;;;2.33;2.03;;;13.50;99.90;;;;;;5069628;28;20647;-85
2021/08/09 01:05:46;;;;;;;2.20;1.97;;;13.40;99.90;;;;;;5071179;28;20640;-85
2021/08/09 01:08:22;;;;;;;3.70;2.03;;;13.50;99.90;;;;;;5070451;28;20639;-85
2021/08/09 01:10:58;;;;;;;2.40;2.20;;;13.50;99.90;;;;;;5065191;28;21025;-85
2021/08/09 01:13:35;;;;;;;2.13;2.03;;;13.50;99.90;;;;;;5069978;28;20759;-85
2021/08/09 01:16:11;;;;;;;2.10;1.70;;;13.30;99.90;;;;;;5070539;28;20621;-85
2021/08/09 01:18:42;;;;;;;2.03;1.93;;;13.30;99.70;;;;;;5070433;28;20630;-85
2021/08/09 01:21:14;;;;;;;2.07;1.87;;;13.40;99.70;;;;;;5059924;28;20652;-85
2021/08/09 01:23:53;;;;;;;1.87;1.63;;;13.30;99.90;;;;;;5057155;28;20683;-86
2021/08/09 01:26:35;;;;;;;2.30;1.83;;;13.40;99.50;;;;;;5051285;28;20801;-86
2021/08/09 01:29:08;;;;;;;1.87;1.70;;;13.50;98.80;;;;;;5050081;28;21155;-85
2021/08/09 01:31:42;;;;;;;2.17;1.97;;;13.50;98.20;;;;;;5050102;28;21179;-85
2021/08/09 01:34:12;;;;;;;3.80;2.20;;;13.50;99.30;;;;;;5044042;28;21024;-85
2021/08/09 01:36:45;;;;;;;2.37;1.50;;;13.40;99.00;;;;;;5050038;28;20740;-86
2021/08/09 01:39:15;;;;;;;2.20;1.90;;;13.40;99.10;;;;;;5046345;28;20648;-85
2021/08/09 01:41:43;;;;;;;1.63;1.53;;;13.50;98.30;;;;;;5048380;28;20624;-85
2021/08/09 01:44:16;;;;;;;3.50;2.37;;;13.40;98.20;;;;;;5049612;28;21256;-85
2021/08/09 01:46:45;;;;;;;2.93;2.20;;;13.40;98.70;;;;;;5049953;28;20663;-86
2021/08/09 01:49:14;;;;;;;4.43;1.90;;;13.40;98.70;;;;;;5049916;28;20636;-86
2021/08/09 01:51:42;;;;;;;4.07;2.03;;;13.30;99.00;;;;;;5049700;28;20720;-86
2021/08/09 01:54:11;;;;;;;2.03;1.90;;;13.40;98.40;;;;;;5050517;28;20660;-86
2021/08/09 01:56:41;;;;;;;2.00;1.80;;;13.40;98.50;;;;;;5052314;28;20709;-85
2021/08/09 01:59:10;;;;;;;6.23;2.23;;;13.40;99.10;;;;;;5054146;28;20630;-86
2021/08/09 02:01:42;;;;;;;2.40;2.20;;;13.40;99.30;;;;;;5053994;28;20624;-86
2021/08/09 02:04:20;;;;;;;3.53;2.00;;;13.30;99.50;;;;;;5054209;28;20626;-86
2021/08/09 02:06:49;;;;;;;2.27;2.07;;;13.30;99.20;;;;;;5054040;28;20628;-86
2021/08/09 02:09:17;;;;;;;2.60;1.93;;;13.20;99.20;;;;;;5053540;28;21276;-86
2021/08/09 02:11:52;;;;;;;2.50;1.93;;;13.20;99.80;;;;;;5050581;28;20649;-86
2021/08/09 02:14:25;;;;;;;2.43;2.00;;;13.10;99.60;;;;;;5053797;28;20660;-86
2021/08/09 02:17:05;;;;;;;3.30;2.47;;;13.20;99.70;;;;;;5053896;28;20611;-85
2021/08/09 02:19:40;;;;;;;1.97;1.87;;;13.20;99.90;;;;;;5053972;28;20651;-86
2021/08/09 02:22:10;;;;;;;2.30;1.70;;;13.20;99.90;;;;;;5052553;28;20641;-86
2021/08/09 02:24:46;;;;;;;4.47;2.17;;;13.20;99.50;;;;;;5048568;28;20654;-87
2021/08/09 02:27:19;;;;;;;2.40;1.87;;;13.10;99.30;;;;;;5053827;28;20980;-86
2021/08/09 02:29:50;;;;;;;1.90;1.77;;;13.10;99.50;;;;;;5053647;28;20624;-86
2021/08/09 02:32:22;;;;;;;2.10;1.90;;;13.10;99.90;;;;;;5052719;28;21249;-85
2021/08/09 02:34:51;;;;;;;2.70;1.90;;;13.00;99.90;;;;;;5053468;28;20668;-85
2021/08/09 02:37:18;;;;;;;2.00;1.90;;;13.00;99.90;;;;;;5053672;28;20630;-85
2021/08/09 02:39:47;;;;;;;2.10;1.87;;;12.90;99.90;;;;;;5048071;28;21097;-86
2021/08/09 02:42:16;;;;;;;2.50;2.00;;;12.90;99.90;;;;;;5052838;28;20725;-85
2021/08/09 02:44:47;;;;;;;1.87;1.73;;;12.90;99.70;;;;;;5052969;28;20616;-85
2021/08/09 02:47:17;;;;;;;2.10;1.93;;;12.90;99.40;;;;;;5052818;28;21173;-85
2021/08/09 02:49:49;;;;;;;2.43;2.07;;;12.80;99.50;;;;;;5053359;28;20620;-85
2021/08/09 02:52:20;;;;;;;5.73;2.13;;;12.80;99.70;;;;;;5052521;28;20608;-85
2021/08/09 02:54:48;;;;;;;2.53;1.80;;;12.70;99.70;;;;;;5053048;28;20755;-85
2021/08/09 02:57:21;;;;;;;2.30;2.00;;;12.70;99.90;;;;;;5052184;28;20625;-86
2021/08/09 02:59:48;;;;;;;1.70;1.60;;;12.70;99.90;;;;;;5052917;28;20658;-85
2021/08/09 03:02:18;;;;;;;2.37;2.17;;;12.60;99.90;;;;;;5052768;28;20673;-86
2021/08/09 03:04:48;;;;;;;3.07;2.13;;;12.50;99.90;;;;;;5053340;28;20624;-86
2021/08/09 03:07:16;;;;;;;3.37;1.87;;;12.50;99.90;;;;;;5051853;28;21041;-85
2021/08/09 03:09:44;;;;;;;1.90;1.80;;;12.50;99.90;;;;;;5047398;28;20672;-85
2021/08/09 03:12:16;;;;;;;5.57;2.17;;;12.40;99.90;;;;;;5052386;28;20651;-85
2021/08/09 03:14:48;;;;;;;2.07;1.70;;;12.30;99.90;;;;;;5052738;28;20660;-85
2021/08/09 03:17:15;;;;;;;2.70;2.47;;;12.40;99.90;;;;;;5052507;28;20670;-85
2021/08/09 03:19:42;;;;;;;2.13;1.80;;;12.30;99.90;;;;;;5052668;28;21005;-86
2021/08/09 03:22:11;;;;;;;3.80;1.63;;;12.30;99.90;;;;;;5052062;28;21174;-85
2021/08/09 03:24:39;;;;;;;2.33;2.13;;;12.30;99.90;;;;;;5048180;28;20651;-85
2021/08/09 03:27:06;;;;;;;3.23;1.90;;;12.20;99.90;;;;;;5051761;28;20619;-85
2021/08/09 03:29:33;;;;;;;2.73;2.53;;;12.20;99.90;;;;;;5051389;28;21507;-85
2021/08/09 03:32:00;;;;;;;3.70;2.10;;;12.20;99.90;;;;;;5051963;28;20621;-85
2021/08/09 03:34:27;;;;;;;2.00;1.90;;;12.10;99.90;;;;;;5051894;28;21012;-85
2021/08/09 03:36:54;;;;;;;4.27;2.60;;;12.10;99.90;;;;;;5051669;28;20611;-86
2021/08/09 03:39:22;;;;;;;2.07;1.90;;;12.10;99.90;;;;;;5052685;28;20670;-85
2021/08/09 03:41:49;;;;;;;2.40;2.20;;;12.10;99.90;;;;;;5069684;28;20605;-85
2021/08/09 03:44:17;;;;;;;2.73;2.10;;;12.10;99.90;;;;;;5072094;28;20623;-85
2021/08/09 03:46:44;;;;;;;2.20;2.00;;;12.10;99.90;;;;;;5072001;28;20614;-85
2021/08/09 03:49:11;;;;;;;2.40;2.20;;;12.10;99.90;;;;;;5072120;28;21073;-85
2021/08/09 03:51:39;;;;;;;3.63;2.60;;;12.10;99.90;;;;;;5071307;28;20618;-84
2021/08/09 03:54:07;;;;;;;2.43;2.20;;;12.10;99.90;;;;;;5074940;28;20668;-85
2021/08/09 03:56:36;;;;;;;4.10;2.50;;;12.10;99.90;;;;;;5089574;28;20613;-85
2021/08/09 03:59:03;;;;;;;9.87;3.03;;;12.10;99.90;;;;;;5091931;28;21240;-84
2021/08/09 04:01:36;;;;;;;2.50;2.33;;;12.20;99.90;;;;;;5092053;28;20626;-84
2021/08/09 04:04:04;;;;;;;2.53;2.33;;;12.30;99.90;;;;;;5091198;28;20683;-85
2021/08/09 04:06:31;;;;;;;2.23;1.80;;;12.30;99.90;;;;;;5091779;28;20617;-85
2021/08/09 04:08:58;;;;;;;3.17;2.50;;;12.30;99.90;;;;;;5090424;28;20609;-85
2021/08/09 04:11:24;;;;;;;3.53;2.60;;;12.20;99.90;;;;;;5088053;28;20612;-85
2021/08/09 04:13:53;;;;;;;3.47;2.40;;;12.20;99.90;;;;;;5092016;28;20664;-85
2021/08/09 04:16:20;;;;;;;2.30;2.10;;;12.10;99.90;;;;;;5091548;28;20661;-85
2021/08/09 04:18:46;;;;;;;3.73;2.10;;;12.10;99.90;;;;;;5091408;28;20614;-85
2021/08/09 04:21:13;;;;;;;2.80;2.40;;;12.10;99.90;;;;;;5091473;28;20605;-85
2021/08/09 04:23:40;;;;;;;5.30;2.10;;;12.20;99.90;;;;;;5091722;28;20612;-85
2021/08/09 04:26:07;;;;;;;2.50;2.30;;;12.30;99.90;;;;;;5086141;28;20648;-84
2021/08/09 04:28:34;;;;;;;2.20;2.00;;;12.30;99.90;;;;;;5091576;28;20621;-85
2021/08/09 04:31:03;;;;;;;2.50;2.03;;;12.60;99.90;;;;;;5089792;28;20675;-85
2021/08/09 04:33:29;;;;;;;2.50;2.10;;;12.70;99.90;;;;;;5083424;28;20623;-84
2021/08/09 04:35:56;;;;;;;2.50;2.30;;;12.80;99.90;;;;;;5070920;28;20658;-84
2021/08/09 04:38:23;;;;;;;3.80;1.90;;;12.80;99.90;;;;;;5054852;28;20623;-84
2021/08/09 04:40:50;;;;;;;2.40;2.20;;;12.70;99.90;;;;;;5066013;28;20626;-84
2021/08/09 04:43:17;;;;;;;2.80;2.30;;;12.70;99.90;;;;;;5070771;28;20948;-84
2021/08/09 04:45:45;;;;;;;3.97;3.20;;;12.60;99.90;;;;;;5070286;28;20619;-84
2021/08/09 04:48:13;;;;;;;4.50;2.63;;;12.60;99.90;;;;;;5071035;28;20664;-84
2021/08/09 04:50:40;;;;;;;3.80;2.27;;;12.60;99.90;;;;;;5070655;28;20671;-84
2021/08/09 04:53:08;;;;;;;4.30;2.60;;;12.60;99.90;;;;;;5070850;28;20607;-84
2021/08/09 04:55:35;;;;;;;4.20;2.60;;;12.60;99.90;;;;;;5070528;28;20658;-83
2021/08/09 04:58:01;;;;;;;2.73;2.53;;;12.50;99.90;;;;;;5070652;28;20616;-84
2021/08/09 05:00:28;;;;;;;4.97;2.17;;;12.50;99.90;;;;;;5070905;28;20609;-84
2021/08/09 05:02:55;;;;;;;5.30;2.90;;;12.60;99.90;;;;;;5070586;28;20678;-85
2021/08/09 05:05:23;;;;;;;3.00;2.60;;;12.70;99.90;;;;;;5069819;28;20615;-84
2021/08/09 05:07:54;;;;;;;3.60;3.30;;;12.80;99.90;;;;;;5070464;28;20632;-84
2021/08/09 05:10:21;;;;;;;3.40;2.73;;;12.90;99.90;;;;;;5052291;28;20630;-84
2021/08/09 05:12:48;;;;;;;2.73;2.53;;;12.90;99.90;;;;;;5065415;28;20604;-84
2021/08/09 05:15:15;;;;;;;3.23;2.83;;;12.90;99.90;;;;;;5063420;28;20669;-84
2021/08/09 05:17:42;;;;;;;3.23;2.70;;;13.00;99.90;;;;;;5062519;28;20615;-84
2021/08/09 05:20:10;;;;;;;3.63;3.00;;;12.90;99.90;;;;;;5051562;28;21062;-83
2021/08/09 05:22:38;;;;;;;7.57;2.90;;;13.00;99.90;;;;;;5051984;28;20730;-84
2021/08/09 05:25:09;;;;;;;4.20;2.60;;;13.00;99.90;;;;;;5054521;28;20622;-84
2021/08/09 05:27:35;;;;;;;4.23;3.30;;;13.10;99.90;;;;;;5050087;28;20659;-84
2021/08/09 05:30:03;;;;;;;3.70;2.80;;;13.10;99.90;;;;;;5063368;28;21273;-85
2021/08/09 05:32:30;;;;;;;3.87;3.37;;;13.20;99.90;;;;;;5067058;28;20625;-84
2021/08/09 05:34:58;;;;;;;3.07;2.87;;;13.30;99.90;;;;;;5054438;28;20656;-84
2021/08/09 05:37:27;;;;;;;2.43;2.27;;;13.40;99.90;;;;;;5052215;28;20617;-84
2021/08/09 05:39:56;;;;;;;2.97;2.70;;;13.50;99.90;;;;;;5057067;28;20694;-84
2021/08/09 05:42:23;;;;;;;2.83;2.17;;;13.60;99.90;;;;;;5065676;28;20613;-84
2021/08/09 05:44:50;;;;;;;2.53;2.33;;;13.70;99.90;;;;;;5064756;28;20636;-85
2021/08/09 05:47:17;;;;;;;2.00;1.90;;;13.80;99.90;;;;;;5051911;28;21190;-85
2021/08/09 05:49:44;;;;;;;2.63;2.00;;;13.80;99.40;;;;;;5054945;28;20629;-85
2021/08/09 05:52:19;;;;;;;4.00;2.70;;;13.90;99.40;;;;;;5065383;28;20619;-85
2021/08/09 05:54:46;;;;;;;2.50;1.90;;;14.00;99.20;;;;;;5067505;28;20664;-85
2021/08/09 05:57:15;;;;;;;2.20;2.10;;;14.10;98.80;;;;;;5054578;28;20614;-84
2021/08/09 05:59:41;;;;;;;2.93;2.40;;;14.10;98.20;;;;;;5062491;28;20616;-85
2021/08/09 06:02:08;;;;;;;2.20;2.00;;;14.20;97.90;;;;;;5069786;28;20608;-85
2021/08/09 06:04:35;;;;;;;2.30;2.00;;;14.30;97.90;;;;;;5069930;28;20724;-85
2021/08/09 06:07:03;;;;;;;2.13;1.87;;;14.40;97.70;;;;;;5068277;28;20620;-85
2021/08/09 06:09:29;;;;;;;2.53;2.13;;;14.40;97.30;;;;;;5050273;28;20621;-85
2021/08/09 06:11:56;;;;;;;3.40;3.10;;;14.40;97.90;;;;;;5054127;28;20616;-85
2021/08/09 06:14:25;;;;;;;4.60;3.00;;;14.60;97.50;;;;;;5057520;28;20628;-85
2021/08/09 06:16:52;;;;;;;1.93;1.70;;;14.60;97.30;;;;;;5053278;28;20641;-84
2021/08/09 06:19:19;;;;;;;2.83;2.53;;;14.70;97.40;;;;;;5049992;28;20634;-85
2021/08/09 06:21:45;;;;;;;1.83;1.73;;;14.70;97.20;;;;;;5049684;28;20646;-84
2021/08/09 06:24:12;;;;;;;2.17;1.97;;;14.80;97.00;;;;;;5050506;28;21248;-85
2021/08/09 06:26:39;;;;;;;2.70;2.13;;;14.90;97.00;;;;;;5057658;28;20629;-84
2021/08/09 06:29:06;;;;;;;2.23;2.10;;;15.00;96.80;;;;;;5062805;28;20625;-84
2021/08/09 06:31:35;;;;;;;2.37;1.90;;;15.10;96.50;;;;;;5059250;28;20645;-85
2021/08/09 06:34:02;;;;;;;2.23;2.13;;;15.20;96.50;;;;;;5056382;28;20622;-85
2021/08/09 06:36:29;;;;;;;2.33;1.83;;;15.20;96.90;;;;;;5057485;28;20702;-84
2021/08/09 06:38:56;;;;;;;4.87;2.23;;;15.30;96.30;;;;;;5057776;28;20607;-84
2021/08/09 06:41:24;;;;;;;3.50;3.07;;;15.40;96.20;;;;;;5058966;28;20620;-84
2021/08/09 06:43:51;;;;;;;2.53;2.10;;;15.50;96.70;;;;;;5059692;28;20646;-84
2021/08/09 06:46:18;;;;;;;3.33;1.80;;;15.60;96.50;;;;;;5053096;28;20853;-84
2021/08/09 06:48:47;;;;;;;2.20;1.60;;;15.60;96.10;;;;;;5052043;28;20652;-84
2021/08/09 06:51:13;;;;;;;3.87;2.13;;;15.50;95.90;;;;;;5051642;28;20622;-84
2021/08/09 06:53:40;;;;;;;2.30;2.10;;;15.60;96.20;;;;;;5053267;28;20618;-84
2021/08/09 06:56:07;;;;;;;2.77;1.77;;;15.60;96.30;;;;;;5051327;28;20661;-84
2021/08/09 06:58:34;;;;;;;2.23;2.07;;;15.80;96.60;;;;;;5058615;28;20613;-86
2021/08/09 07:01:01;;;;;;;2.93;1.60;;;16.00;95.90;;;;;;5072387;28;20614;-84
2021/08/09 07:03:28;;;;;;;4.33;1.63;;;16.20;95.30;;;;;;5072666;28;20622;-85
2021/08/09 07:05:57;;;;;;;2.27;1.73;;;16.30;94.90;;;;;;5073025;28;20628;-90
2021/08/09 07:08:23;;;;;;;2.17;2.07;;;16.40;94.50;;;;;;5072518;28;20617;-86
2021/08/09 07:10:51;;;;;;;1.60;1.40;;;16.50;94.40;;;;;;5072654;28;20627;-85
2021/08/09 07:13:18;;;;;;;1.57;1.47;;;16.50;94.40;;;;;;5072649;28;20645;-84
2021/08/09 07:15:45;;;;;;;1.60;1.50;;;16.60;94.20;;;;;;5071614;28;20723;-85
2021/08/09 07:18:12;;;;;;;2.30;1.40;;;16.60;94.30;;;;;;5072858;28;21030;-84
2021/08/09 07:20:39;;;;;;;2.83;1.90;;;16.70;94.10;;;;;;5072537;28;20622;-85
2021/08/09 07:23:07;;;;;;;1.63;1.53;;;16.90;93.60;;;;;;5072064;28;20631;-88
2021/08/09 07:25:34;;;;;;;2.03;1.60;;;17.00;93.80;;;;;;5072485;28;21175;-84
2021/08/09 07:28:01;;;;;;;2.47;1.60;;;17.20;93.90;;;;;;5071025;28;20616;-84
2021/08/09 07:30:29;;;;;;;7.40;2.10;;;17.40;93.30;;;;;;5072085;28;21170;-84
2021/08/09 07:32:56;;;;;;;3.23;1.63;;;17.40;93.40;;;;;;5071782;28;20677;-84
2021/08/09 07:35:24;;;;;;;2.30;2.10;;;17.40;93.70;;;;;;5071936;28;21208;-84
2021/08/09 07:37:52;;;;;;;1.60;1.50;;;17.50;93.20;;;;;;5060554;28;20634;-84
2021/08/09 07:40:20;;;;;;;2.40;1.87;;;17.70;93.30;;;;;;5052738;28;20624;-85
2021/08/09 07:42:47;;;;;;;1.60;1.30;;;17.80;92.60;;;;;;5051834;28;20612;-87
2021/08/09 07:45:15;;;;;;;1.93;1.70;;;18.00;92.20;;;;;;5065205;28;20631;-86
2021/08/09 07:47:42;;;;;;;2.00;1.30;;;18.10;91.60;;;;;;5071626;28;20628;-84
2021/08/09 07:50:10;;;;;;;2.03;1.83;;;18.00;92.40;;;;;;5072161;28;20624;-85
2021/08/09 07:52:37;;;;;;;1.73;1.60;;;18.00;92.10;;;;;;5071144;28;20720;-85
2021/08/09 07:55:04;;;;;;;2.17;1.73;;;18.30;91.70;;;;;;5071873;28;20652;-85
2021/08/09 07:57:32;;;;;;;1.70;1.60;;;18.40;91.90;;;;;;5071551;28;20632;-85
2021/08/09 07:59:59;;;;;;;2.33;2.13;;;18.50;92.20;;;;;;5071790;28;20633;-84
2021/08/09 08:02:26;;;;;;;2.60;1.80;;;18.60;92.60;;;;;;5071484;28;20675;-85
2021/08/09 08:04:53;;;;;;;2.33;1.70;;;18.60;92.10;;;;;;5072230;28;20617;-84
2021/08/09 08:07:20;;;;;;;1.50;1.40;;;18.70;92.00;;;;;;5072213;28;20618;-84
2021/08/09 08:09:48;;;;;;;1.33;1.23;;;18.60;92.10;;;;;;5071308;28;21021;-87
2021/08/09 08:12:16;;;;;;;1.30;1.20;;;18.70;91.30;;;;;;5073635;28;20646;-84
2021/08/09 08:14:44;;;;;;;2.27;2.17;;;18.60;91.10;;;;;;5073010;28;20624;-84
2021/08/09 08:17:11;;;;;;;1.53;1.20;;;18.90;91.00;;;;;;5071869;28;21137;-86
2021/08/09 08:19:39;;;;;;;2.03;1.83;;;19.00;89.70;;;;;;5072657;28;20625;-88
2021/08/09 08:22:06;;;;;;;2.30;2.10;;;19.20;88.70;;;;;;5070870;28;20633;-86
2021/08/09 08:24:35;;;;;;;2.53;1.30;;;19.30;89.00;;;;;;5071130;28;20613;-87
2021/08/09 08:27:02;;;;;;;1.50;1.40;;;19.20;89.10;;;;;;5072073;28;20661;-88
2021/08/09 08:29:29;;;;;;;1.63;1.40;;;19.50;86.90;;;;;;5072969;28;21255;-88
2021/08/09 08:31:57;;;;;;;1.60;1.30;;;19.60;86.60;;;;;;5070732;28;20651;-86
2021/08/09 08:34:24;;;;;;;2.33;2.00;;;19.70;85.60;;;;;;5071110;28;20618;-86
2021/08/09 08:36:52;;;;;;;2.53;1.37;;;19.60;87.80;;;;;;5068064;28;20653;-86
2021/08/09 08:39:19;;;;;;;1.37;1.27;;;19.60;88.00;;;;;;5051580;28;21204;-89
2021/08/09 08:41:46;;;;;;;1.60;1.23;;;19.70;88.10;;;;;;5059691;28;20614;-88
2021/08/09 08:44:18;;;;;;;1.60;1.50;;;19.90;84.40;;;;;;5071119;28;20614;-88
2021/08/09 08:46:46;;;;;;;1.93;1.00;;;19.90;83.70;;;;;;5071160;28;20675;-86
2021/08/09 08:49:15;;;;;;;2.73;1.50;;;20.10;82.90;;;;;;5071857;28;20626;-87
2021/08/09 08:51:42;;;;;;;2.70;1.47;;;20.30;82.80;;;;;;5073118;28;20621;-89
2021/08/09 08:54:12;;;;;;;2.20;1.30;;;20.40;81.90;;;;;;5074529;28;21630;-85
2021/08/09 08:56:40;;;;;;;1.80;1.10;;;20.50;80.90;;;;;;5073159;28;20662;-87
2021/08/09 08:59:07;;;;;;;1.70;1.10;;;20.50;81.90;;;;;;5074933;28;20647;-88
2021/08/09 09:01:43;;;;;;;1.50;1.40;;;20.50;81.20;;;;;;5073739;28;20708;-88
2021/08/09 09:04:26;;;;;;;1.73;1.63;;;20.60;80.90;;;;;;5069880;28;20617;-87
2021/08/09 09:07:00;;;;;;;2.00;1.40;;;20.80;80.60;;;;;;5071627;28;21212;-88
2021/08/09 09:09:27;;;;;;;1.43;1.33;;;20.90;79.50;;;;;;5070705;28;20622;-89
2021/08/09 09:11:55;;;;;;;1.97;1.40;;;21.00;79.10;;;;;;5070593;28;20617;-85
2021/08/09 09:14:27;;;;;;;1.10;1.00;;;21.00;78.20;;;;;;5072132;28;20626;-88
2021/08/09 09:16:54;;;;;;;0.87;0.87;;;20.90;75.90;;;;;;5071733;28;20674;-84
2021/08/09 09:19:35;;;;;;;0.80;0.80;;;21.10;75.90;;;;;;5071444;28;20663;-84
2021/08/09 09:22:03;;;;;;;3.17;1.10;;;21.10;74.70;;;;;;5070559;28;20636;-86
2021/08/09 09:24:34;;;;;;;1.00;0.90;;;21.20;74.10;;;;;;5070753;28;20677;-86
2021/08/09 09:27:06;;;;;;;1.30;1.20;;;21.40;73.30;;;;;;5069911;28;20655;-86
2021/08/09 09:29:36;;;;;;;2.87;1.10;;;21.20;72.50;;;;;;5070259;28;20617;-86
2021/08/09 09:32:15;;;;;;;1.30;1.20;;;21.30;74.70;;;;;;5069438;28;20619;-86
2021/08/09 09:34:51;;;;;;;4.17;1.17;;;21.10;73.70;;;;;;5052301;28;21180;-85
2021/08/09 09:37:24;;;;;;;1.73;1.30;;;21.20;75.90;;;;;;5059017;28;20662;-84
2021/08/09 09:39:51;;;;;;;1.27;1.17;;;21.30;74.90;;;;;;5070555;28;20611;-88
2021/08/09 09:42:18;;;;;;;3.20;1.20;;;21.30;76.30;;;;;;5064391;28;21060;-83
2021/08/09 09:44:45;;;;;;;2.47;1.13;;;21.50;75.30;;;;;;5071188;28;20972;-87
2021/08/09 09:47:26;;;;;;;1.40;1.30;;;21.70;73.00;;;;;;5069948;28;21313;-87
2021/08/09 09:49:56;;;;;;;1.77;1.33;;;21.90;72.30;;;;;;5069384;28;20623;-86
2021/08/09 09:52:31;;;;;;;1.30;1.20;;;22.00;72.30;;;;;;5068661;28;20662;-85
2021/08/09 09:54:59;;;;;;;1.33;1.17;;;22.10;71.80;;;;;;5069881;28;20624;-88
2021/08/09 09:57:29;;;;;;;1.77;1.40;;;22.20;72.20;;;;;;5063105;28;20676;-86
2021/08/09 09:59:59;;;;;;;1.73;1.10;;;22.20;72.80;;;;;;5072897;28;20648;-90
2021/08/09 10:02:27;;;;;;;0.93;0.93;;;22.30;71.10;;;;;;5084284;28;20659;-88
2021/08/09 10:04:57;;;;;;;2.10;1.47;;;22.40;70.50;;;;;;5090748;28;20615;-89
2021/08/09 10:07:26;;;;;;;1.47;1.10;;;22.50;68.30;;;;;;5089815;28;20640;-86
2021/08/09 10:09:54;;;;;;;2.20;1.30;;;22.40;71.00;;;;;;5071631;28;20676;-86
2021/08/09 10:12:25;;;;;;;1.53;1.23;;;22.20;73.50;;;;;;5069682;28;20632;-86
2021/08/09 10:14:54;;;;;;;1.97;1.40;;;22.30;72.50;;;;;;5071618;28;21034;-87
2021/08/09 10:17:22;;;;;;;1.17;1.07;;;22.50;74.50;;;;;;5074707;28;21161;-84
2021/08/09 10:19:50;;;;;;;2.87;1.43;;;22.50;70.70;;;;;;5074212;28;21183;-87
2021/08/09 10:22:20;;;;;;;1.47;1.37;;;22.60;72.50;;;;;;5073478;28;20981;-86
2021/08/09 10:24:48;;;;;;;2.57;1.40;;;22.70;72.00;;;;;;5073697;28;20620;-87
2021/08/09 10:27:16;;;;;;;1.53;1.43;;;22.90;73.00;;;;;;5073588;28;20638;-87
2021/08/09 10:30:11;;;;;;;1.77;1.50;;;23.00;73.00;;;;;;5073681;28;21170;-87
2021/08/09 10:32:44;;;;;;;2.97;1.50;;;22.90;72.80;;;;;;5072133;28;21043;-85
2021/08/09 10:35:45;;;;;;;1.63;1.47;;;23.10;72.90;;;;;;5073270;28;20766;-85
2021/08/09 10:38:15;;;;;;;1.30;1.20;;;23.20;71.50;;;;;;5057989;28;20621;-86
2021/08/09 10:40:42;;;;;;;1.93;1.67;;;23.10;70.10;;;;;;5067297;28;20744;-88
2021/08/09 10:43:10;;;;;;;3.53;1.50;;;23.40;71.00;;;;;;5073051;28;20621;-87
2021/08/09 10:45:39;;;;;;;1.73;1.63;;;23.70;70.40;;;;;;5073027;28;20632;-88
2021/08/09 10:48:08;;;;;;;2.10;1.43;;;23.70;71.60;;;;;;5073187;28;20664;-88
2021/08/09 10:50:54;;;;;;;2.93;1.40;;;23.80;69.40;;;;;;5071932;28;20635;-85
2021/08/09 10:53:45;;;;;;;1.67;1.57;;;24.00;67.70;;;;;;5071574;28;21023;-85
2021/08/09 10:56:47;;;;;;;2.20;1.43;;;23.80;68.50;;;;;;5074244;28;20660;-87
2021/08/09 10:59:43;;;;;;;1.73;1.40;;;23.70;72.90;;;;;;5073331;28;20616;-87
2021/08/09 11:02:20;;;;;;;3.23;1.57;;;24.20;69.90;;;;;;5072970;28;20866;-84
2021/08/09 11:05:25;;;;;;;1.97;1.23;;;24.60;69.10;;;;;;5073346;28;20625;-85
2021/08/09 11:08:31;;;;;;;1.50;1.40;;;24.90;71.90;;;;;;5073310;28;20625;-85
2021/08/09 11:11:01;;;;;;;1.50;1.40;;;25.10;67.60;;;;;;5071682;28;21154;-86
2021/08/09 11:13:29;;;;;;;4.27;2.10;;;25.20;63.90;;;;;;5074492;28;20617;-86
2021/08/09 11:15:57;;;;;;;1.63;1.37;;;25.60;64.30;;;;;;5073783;28;20614;-87
2021/08/09 11:18:24;;;;;;;1.60;1.50;;;25.50;64.10;;;;;;5069741;28;20629;-84
2021/08/09 11:21:03;;;;;;;2.20;1.40;;;25.90;64.30;;;;;;5072315;28;20631;-87
2021/08/09 11:23:37;;;;;;;1.73;1.30;;;25.70;59.60;;;;;;5061578;28;20629;-86
2021/08/09 11:26:05;;;;;;;1.73;1.20;;;26.10;59.40;;;;;;5054285;28;20610;-87
2021/08/09 11:28:33;;;;;;;1.33;1.30;;;26.10;61.50;;;;;;5073785;28;20625;-86
2021/08/09 11:31:02;;;;;;;1.50;1.37;;;25.70;59.50;;;;;;5076554;28;20626;-87
2021/08/09 11:33:34;;;;;;;1.93;1.40;;;25.50;61.70;;;;;;5069159;28;20622;-86
2021/08/09 11:36:02;;;;;;;2.40;1.70;;;25.10;63.00;;;;;;5055734;28;20630;-86
2021/08/09 11:38:31;;;;;;;1.70;1.60;;;24.50;61.80;;;;;;5058362;28;21196;-86
2021/08/09 11:41:04;;;;;;;1.23;1.13;;;24.60;64.10;;;;;;5049678;28;20717;-86
2021/08/09 11:43:34;;;;;;;2.20;1.23;;;24.90;64.70;;;;;;5067105;28;20616;-83
2021/08/09 11:46:04;;;;;;;1.87;1.30;;;24.80;62.10;;;;;;5059379;28;21151;-86
2021/08/09 11:48:33;;;;;;;3.00;1.60;;;25.10;62.80;;;;;;5047815;28;20721;-84
2021/08/09 11:51:03;;;;;;;1.93;1.73;;;25.20;60.30;;;;;;5046786;28;20622;-83
2021/08/09 11:53:30;;;;;;;1.70;1.60;;;25.40;61.70;;;;;;5049548;28;20625;-84
2021/08/09 11:56:09;;;;;;;2.30;1.53;;;25.10;58.70;;;;;;5068636;28;20683;-87
2021/08/09 11:58:38;;;;;;;2.00;1.20;;;25.50;60.30;;;;;;5071245;28;20621;-84
2021/08/09 12:01:06;;;;;;;1.50;1.40;;;25.90;61.10;;;;;;5071331;28;20614;-86
2021/08/09 12:03:34;;;;;;;3.57;1.40;;;25.70;61.50;;;;;;5070824;28;20622;-86
2021/08/09 12:06:21;;;;;;;2.67;1.37;;;25.00;60.80;;;;;;5067409;28;20988;-87
2021/08/09 12:08:56;;;;;;;3.43;1.93;;;24.60;58.30;;;;;;5071895;28;20665;-86
2021/08/09 12:11:25;;;;;;;2.00;1.80;;;24.10;63.00;;;;;;5069774;28;21012;-86
2021/08/09 12:14:09;;;;;;;1.90;1.40;;;24.60;61.60;;;;;;5071159;28;20716;-87
2021/08/09 12:16:51;;;;;;;1.77;1.37;;;26.30;60.50;;;;;;5055137;28;20642;-86
2021/08/09 12:19:20;;;;;;;2.23;1.70;;;27.20;56.00;;;;;;5052618;28;20669;-86
2021/08/09 12:21:49;;;;;;;3.13;1.63;;;27.90;53.80;;;;;;5071460;28;21571;-87
2021/08/09 12:24:21;;;;;;;1.73;1.63;;;29.10;55.70;;;;;;5071381;28;21147;-85
2021/08/09 12:26:51;;;;;;;1.33;1.23;;;28.80;53.80;;;;;;5059125;28;20979;-86
2021/08/09 12:29:23;;;;;;;2.27;1.17;;;28.50;54.10;;;;;;5050662;28;20634;-85
2021/08/09 12:31:51;;;;;;;1.53;1.07;;;29.30;52.10;;;;;;5074288;28;21033;-86
2021/08/09 12:34:22;;;;;;;1.40;1.30;;;29.40;49.90;;;;;;5054880;28;20716;-87
2021/08/09 12:36:50;;;;;;;1.20;1.20;;;30.20;50.90;;;;;;5051205;28;20711;-85
2021/08/09 12:39:35;;;;;;;2.47;1.60;;;29.70;49.70;;;;;;5052381;28;20614;-85
2021/08/09 12:42:13;;;;;;;2.47;1.77;;;28.30;51.10;;;;;;5054169;28;20625;-86
2021/08/09 12:44:42;;;;;;;1.80;1.43;;;28.60;51.60;;;;;;5074357;28;21521;-85
2021/08/09 12:47:09;;;;;;;2.20;1.53;;;28.00;52.60;;;;;;5069140;28;21241;-86
2021/08/09 12:49:36;;;;;;;2.17;1.20;;;27.40;54.80;;;;;;5059926;28;20665;-85
2021/08/09 12:52:04;;;;;;;1.73;1.57;;;26.80;56.60;;;;;;5052591;28;21047;-84
2021/08/09 12:54:32;;;;;;;1.43;1.33;;;26.70;53.90;;;;;;5061238;28;20687;-86
2021/08/09 12:57:02;;;;;;;1.57;1.30;;;27.30;54.90;;;;;;5074223;28;20650;-85
2021/08/09 12:59:29;;;;;;;1.63;1.53;;;28.40;49.70;;;;;;5068037;28;20625;-87
2021/08/09 13:01:59;;;;;;;1.60;1.50;;;29.00;52.40;;;;;;5063611;28;20640;-87